Terminal Aerodrome Forecast
Issued by NWS

Home | Current Version | Previous Version | Text Only | Print | Product List | Glossary On
Versions: 1 2 3 4 5 6 7 8 9 10 11 12 13 14 15 16 17 18 19 20 21 22 23 24 25
213
FTUS41 KILN 171138
TAFLUK
TAF
KLUK 171138Z 1712/1812 19010G18KT P6SM VCSH OVC021
     FM171500 21012G18KT P6SM OVC015
     FM171800 25012G20KT P6SM OVC025
     FM180000 26012G16KT P6SM OVC015
     FM180300 26009KT P6SM OVC012=

USA.gov is the U.S. government's official web portal to all federal, state and local government web resources and services.